sensor_id;sensor_type;location;lat;lon;timestamp;P1;durP1;ratioP1;P2;durP2;ratioP2
23720;SDS011;42950;52.134;5.578;2024-01-07T00:02:16;37.13;;;24.30;;
23720;SDS011;42950;52.134;5.578;2024-01-07T00:04:43;32.35;;;22.02;;
23720;SDS011;42950;52.134;5.578;2024-01-07T00:07:09;34.05;;;21.88;;
23720;SDS011;42950;52.134;5.578;2024-01-07T00:09:34;29.63;;;21.00;;
23720;SDS011;42950;52.134;5.578;2024-01-07T00:12:00;31.65;;;21.88;;
23720;SDS011;42950;52.134;5.578;2024-01-07T00:14:25;30.20;;;21.55;;
23720;SDS011;42950;52.134;5.578;2024-01-07T00:16:51;30.17;;;21.30;;
23720;SDS011;42950;52.134;5.578;2024-01-07T00:19:16;30.40;;;20.52;;
23720;SDS011;42950;52.134;5.578;2024-01-07T00:21:42;31.27;;;21.55;;
23720;SDS011;42950;52.134;5.578;2024-01-07T00:24:07;31.08;;;21.33;;
23720;SDS011;42950;52.134;5.578;2024-01-07T00:26:33;34.58;;;22.10;;
23720;SDS011;42950;52.134;5.578;2024-01-07T00:28:58;31.95;;;21.65;;
23720;SDS011;42950;52.134;5.578;2024-01-07T00:31:24;29.45;;;21.33;;
23720;SDS011;42950;52.134;5.578;2024-01-07T00:33:49;32.50;;;20.55;;
23720;SDS011;42950;52.134;5.578;2024-01-07T00:36:15;29.02;;;20.13;;
23720;SDS011;42950;52.134;5.578;2024-01-07T00:38:40;32.17;;;20.80;;
23720;SDS011;42950;52.134;5.578;2024-01-07T00:41:06;29.88;;;20.60;;
23720;SDS011;42950;52.134;5.578;2024-01-07T00:43:31;27.77;;;19.65;;
23720;SDS011;42950;52.134;5.578;2024-01-07T00:45:57;29.52;;;20.98;;
23720;SDS011;42950;52.134;5.578;2024-01-07T00:48:22;30.73;;;20.98;;
23720;SDS011;42950;52.134;5.578;2024-01-07T00:50:48;31.20;;;21.05;;
23720;SDS011;42950;52.134;5.578;2024-01-07T00:53:13;33.88;;;23.10;;
23720;SDS011;42950;52.134;5.578;2024-01-07T00:55:39;33.42;;;22.35;;
23720;SDS011;42950;52.134;5.578;2024-01-07T00:58:05;33.47;;;23.05;;
23720;SDS011;42950;52.134;5.578;2024-01-07T01:00:30;32.90;;;21.90;;
23720;SDS011;42950;52.134;5.578;2024-01-07T01:02:56;35.55;;;23.17;;
23720;SDS011;42950;52.134;5.578;2024-01-07T01:05:21;35.63;;;24.42;;
23720;SDS011;42950;52.134;5.578;2024-01-07T01:07:47;35.30;;;23.40;;
23720;SDS011;42950;52.134;5.578;2024-01-07T01:10:13;37.00;;;25.05;;
23720;SDS011;42950;52.134;5.578;2024-01-07T01:12:41;39.10;;;24.90;;
23720;SDS011;42950;52.134;5.578;2024-01-07T01:15:07;39.25;;;24.90;;
23720;SDS011;42950;52.134;5.578;2024-01-07T01:17:33;40.28;;;25.02;;
23720;SDS011;42950;52.134;5.578;2024-01-07T01:19:59;36.10;;;24.80;;
23720;SDS011;42950;52.134;5.578;2024-01-07T01:22:24;39.38;;;25.83;;
23720;SDS011;42950;52.134;5.578;2024-01-07T01:24:50;37.60;;;25.13;;
23720;SDS011;42950;52.134;5.578;2024-01-07T01:27:17;37.45;;;24.98;;
23720;SDS011;42950;52.134;5.578;2024-01-07T01:29:43;35.45;;;24.75;;
23720;SDS011;42950;52.134;5.578;2024-01-07T01:32:09;36.38;;;23.85;;
23720;SDS011;42950;52.134;5.578;2024-01-07T01:34:35;39.67;;;24.85;;
23720;SDS011;42950;52.134;5.578;2024-01-07T01:37:01;39.63;;;25.75;;
23720;SDS011;42950;52.134;5.578;2024-01-07T01:39:26;37.13;;;25.35;;
23720;SDS011;42950;52.134;5.578;2024-01-07T01:41:53;38.88;;;25.88;;
23720;SDS011;42950;52.134;5.578;2024-01-07T01:44:18;36.75;;;25.15;;
23720;SDS011;42950;52.134;5.578;2024-01-07T01:46:44;38.10;;;24.98;;
23720;SDS011;42950;52.134;5.578;2024-01-07T01:49:10;38.42;;;24.20;;
23720;SDS011;42950;52.134;5.578;2024-01-07T01:51:37;35.92;;;24.90;;
23720;SDS011;42950;52.134;5.578;2024-01-07T01:54:02;35.88;;;23.75;;
23720;SDS011;42950;52.134;5.578;2024-01-07T01:56:28;34.72;;;24.35;;
23720;SDS011;42950;52.134;5.578;2024-01-07T01:58:54;35.15;;;23.52;;
23720;SDS011;42950;52.134;5.578;2024-01-07T02:01:21;36.13;;;23.10;;
23720;SDS011;42950;52.134;5.578;2024-01-07T02:03:48;34.10;;;23.42;;
23720;SDS011;42950;52.134;5.578;2024-01-07T02:06:13;35.20;;;24.58;;
23720;SDS011;42950;52.134;5.578;2024-01-07T02:08:40;35.78;;;23.40;;
23720;SDS011;42950;52.134;5.578;2024-01-07T02:11:18;33.25;;;22.67;;
23720;SDS011;42950;52.134;5.578;2024-01-07T02:13:45;34.17;;;23.63;;
23720;SDS011;42950;52.134;5.578;2024-01-07T02:16:11;31.08;;;22.35;;
23720;SDS011;42950;52.134;5.578;2024-01-07T02:18:37;33.25;;;23.10;;
23720;SDS011;42950;52.134;5.578;2024-01-07T02:21:05;33.20;;;22.70;;
23720;SDS011;42950;52.134;5.578;2024-01-07T02:23:32;32.65;;;22.88;;
23720;SDS011;42950;52.134;5.578;2024-01-07T02:25:57;31.05;;;22.05;;
23720;SDS011;42950;52.134;5.578;2024-01-07T02:28:23;32.97;;;22.73;;
23720;SDS011;42950;52.134;5.578;2024-01-07T02:30:48;30.20;;;21.50;;
23720;SDS011;42950;52.134;5.578;2024-01-07T02:33:14;33.17;;;22.98;;
23720;SDS011;42950;52.134;5.578;2024-01-07T02:35:39;30.65;;;21.77;;
23720;SDS011;42950;52.134;5.578;2024-01-07T02:38:05;32.63;;;23.10;;
23720;SDS011;42950;52.134;5.578;2024-01-07T02:40:31;31.65;;;21.95;;
23720;SDS011;42950;52.134;5.578;2024-01-07T02:42:56;32.38;;;21.98;;
23720;SDS011;42950;52.134;5.578;2024-01-07T02:45:22;34.88;;;24.15;;
23720;SDS011;42950;52.134;5.578;2024-01-07T02:47:47;33.35;;;23.60;;
23720;SDS011;42950;52.134;5.578;2024-01-07T02:50:13;32.63;;;22.70;;
23720;SDS011;42950;52.134;5.578;2024-01-07T02:52:39;33.65;;;23.75;;
23720;SDS011;42950;52.134;5.578;2024-01-07T02:55:04;30.35;;;22.23;;
23720;SDS011;42950;52.134;5.578;2024-01-07T02:57:31;35.30;;;24.05;;
23720;SDS011;42950;52.134;5.578;2024-01-07T02:59:57;35.03;;;23.95;;
23720;SDS011;42950;52.134;5.578;2024-01-07T03:02:22;31.77;;;23.65;;
23720;SDS011;42950;52.134;5.578;2024-01-07T03:04:48;31.83;;;23.65;;
23720;SDS011;42950;52.134;5.578;2024-01-07T03:07:14;29.77;;;22.95;;
23720;SDS011;42950;52.134;5.578;2024-01-07T03:09:39;34.28;;;23.60;;
23720;SDS011;42950;52.134;5.578;2024-01-07T03:12:05;33.80;;;23.23;;
23720;SDS011;42950;52.134;5.578;2024-01-07T03:14:30;32.70;;;22.98;;
23720;SDS011;42950;52.134;5.578;2024-01-07T03:16:56;36.67;;;24.63;;
23720;SDS011;42950;52.134;5.578;2024-01-07T03:19:21;32.83;;;23.13;;
23720;SDS011;42950;52.134;5.578;2024-01-07T03:21:50;33.63;;;23.63;;
23720;SDS011;42950;52.134;5.578;2024-01-07T03:24:16;31.88;;;23.20;;
23720;SDS011;42950;52.134;5.578;2024-01-07T03:26:41;33.42;;;22.92;;
23720;SDS011;42950;52.134;5.578;2024-01-07T03:29:07;34.00;;;23.83;;
23720;SDS011;42950;52.134;5.578;2024-01-07T03:31:32;35.78;;;23.85;;
23720;SDS011;42950;52.134;5.578;2024-01-07T03:33:58;33.78;;;23.55;;
23720;SDS011;42950;52.134;5.578;2024-01-07T03:36:24;35.38;;;25.35;;
23720;SDS011;42950;52.134;5.578;2024-01-07T03:38:50;36.63;;;24.45;;
23720;SDS011;42950;52.134;5.578;2024-01-07T03:41:16;37.83;;;25.38;;
23720;SDS011;42950;52.134;5.578;2024-01-07T03:43:48;33.22;;;24.17;;
23720;SDS011;42950;52.134;5.578;2024-01-07T03:46:14;35.90;;;24.75;;
23720;SDS011;42950;52.134;5.578;2024-01-07T03:48:40;33.97;;;24.48;;
23720;SDS011;42950;52.134;5.578;2024-01-07T03:51:07;35.55;;;24.75;;
23720;SDS011;42950;52.134;5.578;2024-01-07T03:53:33;34.45;;;24.50;;
23720;SDS011;42950;52.134;5.578;2024-01-07T03:55:58;35.67;;;24.30;;
23720;SDS011;42950;52.134;5.578;2024-01-07T03:58:24;35.28;;;23.50;;
23720;SDS011;42950;52.134;5.578;2024-01-07T04:00:49;37.28;;;24.95;;
23720;SDS011;42950;52.134;5.578;2024-01-07T04:03:15;36.47;;;25.35;;
23720;SDS011;42950;52.134;5.578;2024-01-07T04:05:40;37.63;;;25.65;;
23720;SDS011;42950;52.134;5.578;2024-01-07T04:08:09;36.60;;;24.98;;
23720;SDS011;42950;52.134;5.578;2024-01-07T04:10:35;34.38;;;23.73;;
23720;SDS011;42950;52.134;5.578;2024-01-07T04:13:01;34.22;;;23.92;;
23720;SDS011;42950;52.134;5.578;2024-01-07T04:15:26;32.88;;;23.90;;
23720;SDS011;42950;52.134;5.578;2024-01-07T04:17:52;34.17;;;23.92;;
23720;SDS011;42950;52.134;5.578;2024-01-07T04:20:17;33.75;;;23.00;;
23720;SDS011;42950;52.134;5.578;2024-01-07T04:22:43;33.47;;;23.25;;
23720;SDS011;42950;52.134;5.578;2024-01-07T04:25:09;31.58;;;21.83;;
23720;SDS011;42950;52.134;5.578;2024-01-07T04:27:35;31.83;;;21.90;;
23720;SDS011;42950;52.134;5.578;2024-01-07T04:30:02;30.30;;;22.00;;
23720;SDS011;42950;52.134;5.578;2024-01-07T04:32:28;30.05;;;20.73;;
23720;SDS011;42950;52.134;5.578;2024-01-07T04:34:53;31.05;;;21.17;;
23720;SDS011;42950;52.134;5.578;2024-01-07T04:37:19;29.17;;;21.33;;
23720;SDS011;42950;52.134;5.578;2024-01-07T04:39:45;28.83;;;20.83;;
23720;SDS011;42950;52.134;5.578;2024-01-07T04:42:10;26.50;;;20.40;;
23720;SDS011;42950;52.134;5.578;2024-01-07T04:44:36;27.90;;;20.27;;
23720;SDS011;42950;52.134;5.578;2024-01-07T04:47:01;28.85;;;20.75;;
23720;SDS011;42950;52.134;5.578;2024-01-07T04:49:27;27.15;;;19.83;;
23720;SDS011;42950;52.134;5.578;2024-01-07T04:51:52;25.35;;;18.67;;
23720;SDS011;42950;52.134;5.578;2024-01-07T04:54:18;24.67;;;18.02;;
23720;SDS011;42950;52.134;5.578;2024-01-07T04:56:44;22.77;;;18.02;;
23720;SDS011;42950;52.134;5.578;2024-01-07T04:59:09;23.65;;;17.55;;
23720;SDS011;42950;52.134;5.578;2024-01-07T05:01:35;23.10;;;17.15;;
23720;SDS011;42950;52.134;5.578;2024-01-07T05:04:04;24.13;;;16.85;;
23720;SDS011;42950;52.134;5.578;2024-01-07T05:06:29;23.73;;;17.70;;
23720;SDS011;42950;52.134;5.578;2024-01-07T05:08:55;21.85;;;16.48;;
23720;SDS011;42950;52.134;5.578;2024-01-07T05:11:20;22.52;;;16.52;;
23720;SDS011;42950;52.134;5.578;2024-01-07T05:13:46;22.33;;;16.75;;
23720;SDS011;42950;52.134;5.578;2024-01-07T05:16:18;22.10;;;16.48;;
23720;SDS011;42950;52.134;5.578;2024-01-07T05:18:44;22.58;;;16.42;;
23720;SDS011;42950;52.134;5.578;2024-01-07T05:21:13;18.83;;;15.32;;
23720;SDS011;42950;52.134;5.578;2024-01-07T05:23:40;20.58;;;15.65;;
23720;SDS011;42950;52.134;5.578;2024-01-07T05:26:05;23.98;;;16.77;;
23720;SDS011;42950;52.134;5.578;2024-01-07T05:28:31;19.98;;;15.52;;
23720;SDS011;42950;52.134;5.578;2024-01-07T05:30:56;20.67;;;15.70;;
23720;SDS011;42950;52.134;5.578;2024-01-07T05:33:22;20.45;;;15.10;;
23720;SDS011;42950;52.134;5.578;2024-01-07T05:35:47;20.42;;;16.00;;
23720;SDS011;42950;52.134;5.578;2024-01-07T05:38:13;19.30;;;14.85;;
23720;SDS011;42950;52.134;5.578;2024-01-07T05:40:38;20.42;;;15.43;;
23720;SDS011;42950;52.134;5.578;2024-01-07T05:43:04;20.55;;;16.15;;
23720;SDS011;42950;52.134;5.578;2024-01-07T05:45:29;20.88;;;14.50;;
23720;SDS011;42950;52.134;5.578;2024-01-07T05:47:55;19.95;;;15.68;;
23720;SDS011;42950;52.134;5.578;2024-01-07T05:50:20;21.00;;;14.90;;
23720;SDS011;42950;52.134;5.578;2024-01-07T05:52:46;19.45;;;14.85;;
23720;SDS011;42950;52.134;5.578;2024-01-07T05:55:11;22.35;;;15.25;;
23720;SDS011;42950;52.134;5.578;2024-01-07T05:57:37;21.77;;;15.45;;
23720;SDS011;42950;52.134;5.578;2024-01-07T06:00:03;19.33;;;15.23;;
23720;SDS011;42950;52.134;5.578;2024-01-07T06:02:29;19.25;;;15.13;;
23720;SDS011;42950;52.134;5.578;2024-01-07T06:04:54;20.48;;;14.75;;
23720;SDS011;42950;52.134;5.578;2024-01-07T06:07:20;19.52;;;14.80;;
23720;SDS011;42950;52.134;5.578;2024-01-07T06:09:46;16.90;;;14.07;;
23720;SDS011;42950;52.134;5.578;2024-01-07T06:12:11;19.35;;;14.57;;
23720;SDS011;42950;52.134;5.578;2024-01-07T06:14:37;17.67;;;14.57;;
23720;SDS011;42950;52.134;5.578;2024-01-07T06:17:02;21.50;;;15.55;;
23720;SDS011;42950;52.134;5.578;2024-01-07T06:19:29;19.73;;;14.63;;
23720;SDS011;42950;52.134;5.578;2024-01-07T06:21:55;20.88;;;14.77;;
23720;SDS011;42950;52.134;5.578;2024-01-07T06:24:20;23.45;;;15.52;;
23720;SDS011;42950;52.134;5.578;2024-01-07T06:26:46;20.73;;;15.55;;
23720;SDS011;42950;52.134;5.578;2024-01-07T06:29:11;17.88;;;14.23;;
23720;SDS011;42950;52.134;5.578;2024-01-07T06:31:42;17.23;;;14.38;;
23720;SDS011;42950;52.134;5.578;2024-01-07T06:34:10;16.95;;;13.95;;
23720;SDS011;42950;52.134;5.578;2024-01-07T06:36:38;20.52;;;15.10;;
23720;SDS011;42950;52.134;5.578;2024-01-07T06:39:05;18.48;;;15.23;;
23720;SDS011;42950;52.134;5.578;2024-01-07T06:41:30;16.70;;;14.20;;
23720;SDS011;42950;52.134;5.578;2024-01-07T06:43:56;21.33;;;15.00;;
23720;SDS011;42950;52.134;5.578;2024-01-07T06:46:22;19.02;;;14.80;;
23720;SDS011;42950;52.134;5.578;2024-01-07T06:48:47;17.92;;;14.15;;
23720;SDS011;42950;52.134;5.578;2024-01-07T06:51:13;17.02;;;13.57;;
23720;SDS011;42950;52.134;5.578;2024-01-07T06:53:40;19.70;;;14.50;;
23720;SDS011;42950;52.134;5.578;2024-01-07T06:56:06;19.38;;;14.88;;
23720;SDS011;42950;52.134;5.578;2024-01-07T06:58:31;17.90;;;14.73;;
23720;SDS011;42950;52.134;5.578;2024-01-07T07:00:57;18.35;;;15.23;;
23720;SDS011;42950;52.134;5.578;2024-01-07T07:03:23;20.70;;;14.52;;
23720;SDS011;42950;52.134;5.578;2024-01-07T07:05:48;20.67;;;15.27;;
23720;SDS011;42950;52.134;5.578;2024-01-07T07:08:14;17.95;;;14.98;;
23720;SDS011;42950;52.134;5.578;2024-01-07T07:10:40;20.98;;;15.65;;
23720;SDS011;42950;52.134;5.578;2024-01-07T07:13:05;23.45;;;16.90;;
23720;SDS011;42950;52.134;5.578;2024-01-07T07:15:31;19.45;;;15.40;;
23720;SDS011;42950;52.134;5.578;2024-01-07T07:17:56;20.13;;;15.55;;
23720;SDS011;42950;52.134;5.578;2024-01-07T07:20:22;19.75;;;15.77;;
23720;SDS011;42950;52.134;5.578;2024-01-07T07:22:48;19.92;;;15.55;;
23720;SDS011;42950;52.134;5.578;2024-01-07T07:25:13;19.63;;;15.90;;
23720;SDS011;42950;52.134;5.578;2024-01-07T07:27:39;18.77;;;15.38;;
23720;SDS011;42950;52.134;5.578;2024-01-07T07:30:05;19.45;;;15.57;;
23720;SDS011;42950;52.134;5.578;2024-01-07T07:32:31;19.63;;;15.10;;
23720;SDS011;42950;52.134;5.578;2024-01-07T07:34:57;19.05;;;15.50;;
23720;SDS011;42950;52.134;5.578;2024-01-07T07:37:22;20.98;;;15.40;;
23720;SDS011;42950;52.134;5.578;2024-01-07T07:39:48;19.20;;;16.10;;
23720;SDS011;42950;52.134;5.578;2024-01-07T07:42:14;21.13;;;15.90;;
23720;SDS011;42950;52.134;5.578;2024-01-07T07:44:40;21.77;;;16.20;;
23720;SDS011;42950;52.134;5.578;2024-01-07T07:47:05;18.85;;;15.60;;
23720;SDS011;42950;52.134;5.578;2024-01-07T07:49:32;19.40;;;15.20;;
23720;SDS011;42950;52.134;5.578;2024-01-07T07:51:59;21.35;;;15.50;;
23720;SDS011;42950;52.134;5.578;2024-01-07T07:54:24;18.63;;;14.50;;
23720;SDS011;42950;52.134;5.578;2024-01-07T07:56:50;20.23;;;14.82;;
23720;SDS011;42950;52.134;5.578;2024-01-07T07:59:15;15.43;;;12.38;;
23720;SDS011;42950;52.134;5.578;2024-01-07T08:01:41;15.10;;;12.93;;
23720;SDS011;42950;52.134;5.578;2024-01-07T08:04:07;16.35;;;11.75;;
23720;SDS011;42950;52.134;5.578;2024-01-07T08:06:34;13.50;;;11.68;;
23720;SDS011;42950;52.134;5.578;2024-01-07T08:09:00;13.05;;;11.10;;
23720;SDS011;42950;52.134;5.578;2024-01-07T08:11:25;13.90;;;11.52;;
23720;SDS011;42950;52.134;5.578;2024-01-07T08:13:53;12.13;;;10.13;;
23720;SDS011;42950;52.134;5.578;2024-01-07T08:16:19;12.40;;;10.30;;
23720;SDS011;42950;52.134;5.578;2024-01-07T08:18:45;13.43;;;9.90;;
23720;SDS011;42950;52.134;5.578;2024-01-07T08:21:11;12.75;;;9.73;;
23720;SDS011;42950;52.134;5.578;2024-01-07T08:23:36;14.25;;;10.38;;
23720;SDS011;42950;52.134;5.578;2024-01-07T08:26:02;12.07;;;10.30;;
23720;SDS011;42950;52.134;5.578;2024-01-07T08:28:28;13.20;;;10.52;;
23720;SDS011;42950;52.134;5.578;2024-01-07T08:30:53;11.80;;;10.20;;
23720;SDS011;42950;52.134;5.578;2024-01-07T08:33:19;12.43;;;10.43;;
23720;SDS011;42950;52.134;5.578;2024-01-07T08:35:44;12.27;;;9.98;;
23720;SDS011;42950;52.134;5.578;2024-01-07T08:38:10;14.52;;;10.35;;
23720;SDS011;42950;52.134;5.578;2024-01-07T08:40:36;13.10;;;10.10;;
23720;SDS011;42950;52.134;5.578;2024-01-07T08:43:02;13.80;;;10.15;;
23720;SDS011;42950;52.134;5.578;2024-01-07T08:45:27;11.95;;;9.68;;
23720;SDS011;42950;52.134;5.578;2024-01-07T08:47:53;13.93;;;9.93;;
23720;SDS011;42950;52.134;5.578;2024-01-07T08:50:19;12.73;;;9.50;;
23720;SDS011;42950;52.134;5.578;2024-01-07T08:52:45;12.75;;;9.82;;
23720;SDS011;42950;52.134;5.578;2024-01-07T08:55:11;14.02;;;10.52;;
23720;SDS011;42950;52.134;5.578;2024-01-07T08:57:37;13.75;;;9.60;;
23720;SDS011;42950;52.134;5.578;2024-01-07T09:00:06;10.95;;;9.27;;
23720;SDS011;42950;52.134;5.578;2024-01-07T09:02:34;12.32;;;9.40;;
23720;SDS011;42950;52.134;5.578;2024-01-07T09:05:00;10.63;;;9.25;;
23720;SDS011;42950;52.134;5.578;2024-01-07T09:07:26;11.65;;;9.13;;
23720;SDS011;42950;52.134;5.578;2024-01-07T09:09:52;14.38;;;9.50;;
23720;SDS011;42950;52.134;5.578;2024-01-07T09:12:20;14.00;;;9.70;;
23720;SDS011;42950;52.134;5.578;2024-01-07T09:14:46;13.43;;;9.85;;
23720;SDS011;42950;52.134;5.578;2024-01-07T09:17:11;14.20;;;10.23;;
23720;SDS011;42950;52.134;5.578;2024-01-07T09:19:37;12.88;;;9.57;;
23720;SDS011;42950;52.134;5.578;2024-01-07T09:22:03;12.40;;;9.65;;
23720;SDS011;42950;52.134;5.578;2024-01-07T09:24:29;12.23;;;9.55;;
23720;SDS011;42950;52.134;5.578;2024-01-07T09:26:55;13.73;;;9.38;;
23720;SDS011;42950;52.134;5.578;2024-01-07T09:29:24;13.40;;;9.73;;
23720;SDS011;42950;52.134;5.578;2024-01-07T09:31:50;13.70;;;8.88;;
23720;SDS011;42950;52.134;5.578;2024-01-07T09:34:16;13.13;;;9.82;;
23720;SDS011;42950;52.134;5.578;2024-01-07T09:36:41;14.63;;;9.10;;
23720;SDS011;42950;52.134;5.578;2024-01-07T09:39:07;11.07;;;8.35;;
23720;SDS011;42950;52.134;5.578;2024-01-07T09:41:32;14.10;;;8.88;;
23720;SDS011;42950;52.134;5.578;2024-01-07T09:43:59;10.93;;;8.15;;
23720;SDS011;42950;52.134;5.578;2024-01-07T09:46:24;12.45;;;7.93;;
23720;SDS011;42950;52.134;5.578;2024-01-07T09:48:50;12.68;;;8.20;;
23720;SDS011;42950;52.134;5.578;2024-01-07T09:51:16;10.27;;;7.57;;
23720;SDS011;42950;52.134;5.578;2024-01-07T09:53:47;10.40;;;7.22;;
23720;SDS011;42950;52.134;5.578;2024-01-07T09:58:49;11.45;;;7.40;;
23720;SDS011;42950;52.134;5.578;2024-01-07T10:01:17;8.35;;;6.47;;
23720;SDS011;42950;52.134;5.578;2024-01-07T10:03:42;9.85;;;6.68;;
23720;SDS011;42950;52.134;5.578;2024-01-07T10:06:10;8.82;;;5.78;;
23720;SDS011;42950;52.134;5.578;2024-01-07T10:08:35;6.93;;;5.45;;
23720;SDS011;42950;52.134;5.578;2024-01-07T10:11:02;8.02;;;6.13;;
23720;SDS011;42950;52.134;5.578;2024-01-07T10:13:29;9.40;;;6.18;;
23720;SDS011;42950;52.134;5.578;2024-01-07T10:15:58;7.13;;;5.60;;
23720;SDS011;42950;52.134;5.578;2024-01-07T10:18:24;7.65;;;5.97;;
23720;SDS011;42950;52.134;5.578;2024-01-07T10:20:50;10.05;;;6.05;;
23720;SDS011;42950;52.134;5.578;2024-01-07T10:23:19;5.70;;;4.78;;
23720;SDS011;42950;52.134;5.578;2024-01-07T10:25:45;7.22;;;4.97;;
23720;SDS011;42950;52.134;5.578;2024-01-07T10:28:12;7.85;;;5.53;;
23720;SDS011;42950;52.134;5.578;2024-01-07T10:30:39;8.05;;;5.40;;
23720;SDS011;42950;52.134;5.578;2024-01-07T10:33:05;7.28;;;5.30;;
23720;SDS011;42950;52.134;5.578;2024-01-07T10:35:33;7.82;;;5.35;;
23720;SDS011;42950;52.134;5.578;2024-01-07T10:38:00;7.53;;;5.00;;
23720;SDS011;42950;52.134;5.578;2024-01-07T10:40:26;5.80;;;4.88;;
23720;SDS011;42950;52.134;5.578;2024-01-07T10:42:52;7.40;;;4.57;;
23720;SDS011;42950;52.134;5.578;2024-01-07T10:45:20;8.13;;;6.40;;
23720;SDS011;42950;52.134;5.578;2024-01-07T10:47:48;5.53;;;4.50;;
23720;SDS011;42950;52.134;5.578;2024-01-07T10:50:17;6.43;;;4.55;;
23720;SDS011;42950;52.134;5.578;2024-01-07T10:52:48;6.55;;;4.57;;
23720;SDS011;42950;52.134;5.578;2024-01-07T10:55:15;6.85;;;4.72;;
23720;SDS011;42950;52.134;5.578;2024-01-07T10:57:46;6.32;;;4.65;;
23720;SDS011;42950;52.134;5.578;2024-01-07T11:00:14;5.70;;;4.47;;
23720;SDS011;42950;52.134;5.578;2024-01-07T11:05:18;5.28;;;4.50;;
23720;SDS011;42950;52.134;5.578;2024-01-07T11:07:52;6.15;;;4.43;;
23720;SDS011;42950;52.134;5.578;2024-01-07T11:10:43;5.90;;;4.43;;
23720;SDS011;42950;52.134;5.578;2024-01-07T11:13:32;4.10;;;3.70;;
23720;SDS011;42950;52.134;5.578;2024-01-07T11:16:05;4.55;;;3.42;;
23720;SDS011;42950;52.134;5.578;2024-01-07T11:18:34;5.80;;;3.53;;
23720;SDS011;42950;52.134;5.578;2024-01-07T11:21:05;4.22;;;3.83;;
23720;SDS011;42950;52.134;5.578;2024-01-07T11:23:42;4.65;;;3.53;;
23720;SDS011;42950;52.134;5.578;2024-01-07T11:26:08;4.15;;;3.33;;
23720;SDS011;42950;52.134;5.578;2024-01-07T11:28:45;3.53;;;3.22;;
23720;SDS011;42950;52.134;5.578;2024-01-07T11:31:10;4.25;;;3.33;;
23720;SDS011;42950;52.134;5.578;2024-01-07T11:33:36;4.90;;;3.10;;
23720;SDS011;42950;52.134;5.578;2024-01-07T11:36:02;4.70;;;3.10;;
23720;SDS011;42950;52.134;5.578;2024-01-07T11:38:30;3.75;;;3.10;;
23720;SDS011;42950;52.134;5.578;2024-01-07T11:40:56;7.20;;;3.25;;
23720;SDS011;42950;52.134;5.578;2024-01-07T11:43:22;4.90;;;3.10;;
23720;SDS011;42950;52.134;5.578;2024-01-07T11:45:51;3.20;;;2.78;;
23720;SDS011;42950;52.134;5.578;2024-01-07T11:48:17;5.93;;;3.28;;
23720;SDS011;42950;52.134;5.578;2024-01-07T11:50:43;3.10;;;2.75;;
23720;SDS011;42950;52.134;5.578;2024-01-07T11:53:11;4.03;;;2.40;;
23720;SDS011;42950;52.134;5.578;2024-01-07T11:55:37;3.30;;;2.70;;
23720;SDS011;42950;52.134;5.578;2024-01-07T11:58:03;4.80;;;2.80;;
23720;SDS011;42950;52.134;5.578;2024-01-07T12:00:32;3.67;;;2.70;;
23720;SDS011;42950;52.134;5.578;2024-01-07T12:02:59;3.05;;;2.42;;
23720;SDS011;42950;52.134;5.578;2024-01-07T12:05:26;3.80;;;2.50;;
23720;SDS011;42950;52.134;5.578;2024-01-07T12:07:52;2.88;;;2.40;;
23720;SDS011;42950;52.134;5.578;2024-01-07T12:10:17;4.35;;;2.50;;
23720;SDS011;42950;52.134;5.578;2024-01-07T12:12:43;2.88;;;2.67;;
23720;SDS011;42950;52.134;5.578;2024-01-07T12:15:09;5.30;;;2.88;;
23720;SDS011;42950;52.134;5.578;2024-01-07T12:17:38;3.72;;;2.50;;
23720;SDS011;42950;52.134;5.578;2024-01-07T12:20:05;2.42;;;2.20;;
23720;SDS011;42950;52.134;5.578;2024-01-07T12:22:32;6.55;;;3.00;;
23720;SDS011;42950;52.134;5.578;2024-01-07T12:25:04;4.75;;;2.47;;
23720;SDS011;42950;52.134;5.578;2024-01-07T12:27:31;4.38;;;2.45;;
23720;SDS011;42950;52.134;5.578;2024-01-07T12:29:57;3.30;;;2.10;;
23720;SDS011;42950;52.134;5.578;2024-01-07T12:32:29;3.25;;;2.58;;
23720;SDS011;42950;52.134;5.578;2024-01-07T12:34:59;4.07;;;2.80;;
23720;SDS011;42950;52.134;5.578;2024-01-07T12:37:26;3.10;;;2.45;;
23720;SDS011;42950;52.134;5.578;2024-01-07T12:39:52;3.08;;;2.50;;
23720;SDS011;42950;52.134;5.578;2024-01-07T12:42:18;2.58;;;2.20;;
23720;SDS011;42950;52.134;5.578;2024-01-07T12:44:45;3.53;;;2.67;;
23720;SDS011;42950;52.134;5.578;2024-01-07T12:47:10;3.13;;;2.28;;
23720;SDS011;42950;52.134;5.578;2024-01-07T12:49:36;2.65;;;1.80;;
23720;SDS011;42950;52.134;5.578;2024-01-07T12:52:01;3.13;;;1.95;;
23720;SDS011;42950;52.134;5.578;2024-01-07T12:54:27;3.65;;;2.33;;
23720;SDS011;42950;52.134;5.578;2024-01-07T12:56:53;2.63;;;2.00;;
23720;SDS011;42950;52.134;5.578;2024-01-07T12:59:18;3.30;;;2.45;;
23720;SDS011;42950;52.134;5.578;2024-01-07T13:01:44;2.88;;;1.70;;
23720;SDS011;42950;52.134;5.578;2024-01-07T13:04:09;2.55;;;1.98;;
23720;SDS011;42950;52.134;5.578;2024-01-07T13:06:35;2.78;;;1.85;;
23720;SDS011;42950;52.134;5.578;2024-01-07T13:09:01;3.42;;;2.58;;
23720;SDS011;42950;52.134;5.578;2024-01-07T13:11:29;3.03;;;2.63;;
23720;SDS011;42950;52.134;5.578;2024-01-07T13:13:57;2.17;;;1.92;;
23720;SDS011;42950;52.134;5.578;2024-01-07T13:16:25;4.47;;;2.00;;
23720;SDS011;42950;52.134;5.578;2024-01-07T13:18:51;4.00;;;1.95;;
23720;SDS011;42950;52.134;5.578;2024-01-07T13:21:16;2.75;;;2.00;;
23720;SDS011;42950;52.134;5.578;2024-01-07T13:23:42;4.13;;;2.30;;
23720;SDS011;42950;52.134;5.578;2024-01-07T13:26:09;2.00;;;1.80;;
23720;SDS011;42950;52.134;5.578;2024-01-07T13:28:35;3.17;;;2.08;;
23720;SDS011;42950;52.134;5.578;2024-01-07T13:31:01;6.63;;;2.15;;
23720;SDS011;42950;52.134;5.578;2024-01-07T13:33:28;2.58;;;1.70;;
23720;SDS011;42950;52.134;5.578;2024-01-07T13:35:54;3.58;;;1.77;;
23720;SDS011;42950;52.134;5.578;2024-01-07T13:38:19;2.88;;;1.60;;
23720;SDS011;42950;52.134;5.578;2024-01-07T13:40:45;3.53;;;1.90;;
23720;SDS011;42950;52.134;5.578;2024-01-07T13:43:11;3.28;;;2.00;;
23720;SDS011;42950;52.134;5.578;2024-01-07T13:45:36;5.15;;;2.53;;
23720;SDS011;42950;52.134;5.578;2024-01-07T13:48:02;4.75;;;2.25;;
23720;SDS011;42950;52.134;5.578;2024-01-07T13:50:28;4.40;;;2.53;;
23720;SDS011;42950;52.134;5.578;2024-01-07T13:52:54;4.65;;;2.13;;
23720;SDS011;42950;52.134;5.578;2024-01-07T13:55:19;2.42;;;1.80;;
23720;SDS011;42950;52.134;5.578;2024-01-07T13:57:45;3.95;;;1.90;;
23720;SDS011;42950;52.134;5.578;2024-01-07T14:00:10;2.35;;;2.00;;
23720;SDS011;42950;52.134;5.578;2024-01-07T14:02:43;3.63;;;1.98;;
23720;SDS011;42950;52.134;5.578;2024-01-07T14:05:11;5.40;;;1.90;;
23720;SDS011;42950;52.134;5.578;2024-01-07T14:07:37;2.78;;;2.08;;
23720;SDS011;42950;52.134;5.578;2024-01-07T14:10:03;4.72;;;2.40;;
23720;SDS011;42950;52.134;5.578;2024-01-07T14:12:30;3.25;;;2.17;;
23720;SDS011;42950;52.134;5.578;2024-01-07T14:14:56;4.13;;;2.45;;
23720;SDS011;42950;52.134;5.578;2024-01-07T14:17:22;2.45;;;2.05;;
23720;SDS011;42950;52.134;5.578;2024-01-07T14:19:47;6.68;;;2.50;;
23720;SDS011;42950;52.134;5.578;2024-01-07T14:22:13;3.22;;;2.08;;
23720;SDS011;42950;52.134;5.578;2024-01-07T14:24:39;4.88;;;2.03;;
23720;SDS011;42950;52.134;5.578;2024-01-07T14:27:04;2.65;;;2.17;;
23720;SDS011;42950;52.134;5.578;2024-01-07T14:29:30;4.75;;;2.30;;
23720;SDS011;42950;52.134;5.578;2024-01-07T14:31:55;4.95;;;2.70;;